sensor_id;sensor_type;location;lat;lon;timestamp;P1;durP1;ratioP1;P2;durP2;ratioP2
8397;SDS011;4236;54.504;9.588;2022-09-24T00:01:28;27.50;;;25.30;;
8397;SDS011;4236;54.504;9.588;2022-09-24T00:03:58;27.50;;;25.50;;
8397;SDS011;4236;54.504;9.588;2022-09-24T00:06:28;27.70;;;25.73;;
8397;SDS011;4236;54.504;9.588;2022-09-24T00:08:59;30.90;;;28.40;;
8397;SDS011;4236;54.504;9.588;2022-09-24T00:11:28;30.43;;;27.97;;
8397;SDS011;4236;54.504;9.588;2022-09-24T00:13:57;28.30;;;26.00;;
8397;SDS011;4236;54.504;9.588;2022-09-24T00:16:26;31.10;;;28.70;;
8397;SDS011;4236;54.504;9.588;2022-09-24T00:18:57;31.93;;;29.30;;
8397;SDS011;4236;54.504;9.588;2022-09-24T00:21:25;30.00;;;27.60;;
8397;SDS011;4236;54.504;9.588;2022-09-24T00:23:55;31.47;;;28.73;;
8397;SDS011;4236;54.504;9.588;2022-09-24T00:26:24;31.03;;;28.63;;
8397;SDS011;4236;54.504;9.588;2022-09-24T00:29:12;30.73;;;28.37;;
8397;SDS011;4236;54.504;9.588;2022-09-24T00:31:41;30.20;;;27.50;;
8397;SDS011;4236;54.504;9.588;2022-09-24T00:34:09;29.47;;;27.17;;
8397;SDS011;4236;54.504;9.588;2022-09-24T00:36:37;27.53;;;25.57;;
8397;SDS011;4236;54.504;9.588;2022-09-24T00:39:05;31.53;;;28.93;;
8397;SDS011;4236;54.504;9.588;2022-09-24T00:41:33;32.53;;;29.93;;
8397;SDS011;4236;54.504;9.588;2022-09-24T00:47:23;31.47;;;28.73;;
8397;SDS011;4236;54.504;9.588;2022-09-24T00:49:57;28.03;;;25.80;;
8397;SDS011;4236;54.504;9.588;2022-09-24T00:52:31;29.90;;;27.57;;
8397;SDS011;4236;54.504;9.588;2022-09-24T00:55:00;35.83;;;32.33;;
8397;SDS011;4236;54.504;9.588;2022-09-24T00:57:27;32.33;;;29.80;;
8397;SDS011;4236;54.504;9.588;2022-09-24T00:59:55;33.33;;;30.63;;
8397;SDS011;4236;54.504;9.588;2022-09-24T01:02:24;32.40;;;29.80;;
8397;SDS011;4236;54.504;9.588;2022-09-24T01:04:52;35.13;;;32.33;;
8397;SDS011;4236;54.504;9.588;2022-09-24T01:07:22;34.73;;;32.13;;
8397;SDS011;4236;54.504;9.588;2022-09-24T01:09:50;35.90;;;32.87;;
8397;SDS011;4236;54.504;9.588;2022-09-24T01:12:20;34.93;;;32.03;;
8397;SDS011;4236;54.504;9.588;2022-09-24T01:14:56;33.20;;;30.60;;
8397;SDS011;4236;54.504;9.588;2022-09-24T01:17:35;30.33;;;28.10;;
8397;SDS011;4236;54.504;9.588;2022-09-24T01:20:27;32.40;;;29.90;;
8397;SDS011;4236;54.504;9.588;2022-09-24T01:23:15;35.20;;;32.37;;
8397;SDS011;4236;54.504;9.588;2022-09-24T01:26:17;34.27;;;31.47;;
8397;SDS011;4236;54.504;9.588;2022-09-24T01:29:17;33.17;;;30.73;;
8397;SDS011;4236;54.504;9.588;2022-09-24T01:31:58;31.70;;;29.40;;
8397;SDS011;4236;54.504;9.588;2022-09-24T01:34:32;33.70;;;31.10;;
8397;SDS011;4236;54.504;9.588;2022-09-24T01:37:06;31.80;;;29.60;;
8397;SDS011;4236;54.504;9.588;2022-09-24T01:39:34;33.07;;;30.63;;
8397;SDS011;4236;54.504;9.588;2022-09-24T01:42:04;37.40;;;34.30;;
8397;SDS011;4236;54.504;9.588;2022-09-24T01:44:34;36.47;;;33.63;;
8397;SDS011;4236;54.504;9.588;2022-09-24T01:47:03;41.03;;;37.50;;
8397;SDS011;4236;54.504;9.588;2022-09-24T01:49:33;38.00;;;35.10;;
8397;SDS011;4236;54.504;9.588;2022-09-24T01:52:02;33.37;;;30.67;;
8397;SDS011;4236;54.504;9.588;2022-09-24T01:54:36;36.07;;;32.87;;
8397;SDS011;4236;54.504;9.588;2022-09-24T01:57:10;35.80;;;33.30;;
8397;SDS011;4236;54.504;9.588;2022-09-24T01:59:41;35.27;;;32.50;;
8397;SDS011;4236;54.504;9.588;2022-09-24T02:02:15;36.20;;;33.50;;
8397;SDS011;4236;54.504;9.588;2022-09-24T02:04:55;33.37;;;30.90;;
8397;SDS011;4236;54.504;9.588;2022-09-24T02:07:30;35.80;;;32.50;;
8397;SDS011;4236;54.504;9.588;2022-09-24T02:10:00;35.77;;;32.80;;
8397;SDS011;4236;54.504;9.588;2022-09-24T02:12:34;37.47;;;34.40;;
8397;SDS011;4236;54.504;9.588;2022-09-24T02:15:10;38.20;;;35.10;;
8397;SDS011;4236;54.504;9.588;2022-09-24T02:17:43;38.17;;;35.20;;
8397;SDS011;4236;54.504;9.588;2022-09-24T02:20:15;34.13;;;31.50;;
8397;SDS011;4236;54.504;9.588;2022-09-24T02:22:46;36.77;;;34.03;;
8397;SDS011;4236;54.504;9.588;2022-09-24T02:25:17;38.17;;;35.07;;
8397;SDS011;4236;54.504;9.588;2022-09-24T02:27:48;37.50;;;34.70;;
8397;SDS011;4236;54.504;9.588;2022-09-24T02:30:17;35.00;;;32.00;;
8397;SDS011;4236;54.504;9.588;2022-09-24T02:32:45;34.23;;;31.70;;
8397;SDS011;4236;54.504;9.588;2022-09-24T02:35:14;39.10;;;35.80;;
8397;SDS011;4236;54.504;9.588;2022-09-24T02:37:41;39.00;;;36.00;;
8397;SDS011;4236;54.504;9.588;2022-09-24T02:40:10;40.57;;;37.40;;
8397;SDS011;4236;54.504;9.588;2022-09-24T02:42:41;37.13;;;34.23;;
8397;SDS011;4236;54.504;9.588;2022-09-24T02:45:09;36.87;;;33.90;;
8397;SDS011;4236;54.504;9.588;2022-09-24T02:47:40;36.63;;;33.93;;
8397;SDS011;4236;54.504;9.588;2022-09-24T02:50:08;37.00;;;34.10;;
8397;SDS011;4236;54.504;9.588;2022-09-24T02:52:35;33.87;;;31.37;;
8397;SDS011;4236;54.504;9.588;2022-09-24T02:55:03;37.60;;;34.70;;
8397;SDS011;4236;54.504;9.588;2022-09-24T02:57:31;41.50;;;38.17;;
8397;SDS011;4236;54.504;9.588;2022-09-24T02:59:59;41.47;;;38.17;;
8397;SDS011;4236;54.504;9.588;2022-09-24T03:02:27;39.10;;;36.10;;
8397;SDS011;4236;54.504;9.588;2022-09-24T03:04:56;41.67;;;38.40;;
8397;SDS011;4236;54.504;9.588;2022-09-24T03:07:24;40.43;;;37.30;;
8397;SDS011;4236;54.504;9.588;2022-09-24T03:09:51;39.03;;;36.00;;
8397;SDS011;4236;54.504;9.588;2022-09-24T03:12:19;40.43;;;37.23;;
8397;SDS011;4236;54.504;9.588;2022-09-24T03:14:46;39.23;;;35.90;;
8397;SDS011;4236;54.504;9.588;2022-09-24T03:17:14;38.17;;;35.17;;
8397;SDS011;4236;54.504;9.588;2022-09-24T03:19:42;40.93;;;37.97;;
8397;SDS011;4236;54.504;9.588;2022-09-24T03:22:10;37.17;;;34.33;;
8397;SDS011;4236;54.504;9.588;2022-09-24T03:24:38;35.10;;;32.70;;
8397;SDS011;4236;54.504;9.588;2022-09-24T03:27:05;40.30;;;36.97;;
8397;SDS011;4236;54.504;9.588;2022-09-24T03:29:33;40.10;;;36.90;;
8397;SDS011;4236;54.504;9.588;2022-09-24T03:32:17;40.70;;;37.53;;
8397;SDS011;4236;54.504;9.588;2022-09-24T03:34:45;40.03;;;36.90;;
8397;SDS011;4236;54.504;9.588;2022-09-24T03:37:14;41.37;;;38.03;;
8397;SDS011;4236;54.504;9.588;2022-09-24T03:39:41;42.70;;;38.93;;
8397;SDS011;4236;54.504;9.588;2022-09-24T03:42:09;38.20;;;35.20;;
8397;SDS011;4236;54.504;9.588;2022-09-24T03:44:37;40.13;;;37.13;;
8397;SDS011;4236;54.504;9.588;2022-09-24T03:47:04;41.57;;;38.17;;
8397;SDS011;4236;54.504;9.588;2022-09-24T03:49:32;44.23;;;40.47;;
8397;SDS011;4236;54.504;9.588;2022-09-24T03:52:00;44.70;;;41.07;;
8397;SDS011;4236;54.504;9.588;2022-09-24T03:54:29;44.07;;;40.53;;
8397;SDS011;4236;54.504;9.588;2022-09-24T03:56:56;44.43;;;41.03;;
8397;SDS011;4236;54.504;9.588;2022-09-24T03:59:24;42.37;;;38.80;;
8397;SDS011;4236;54.504;9.588;2022-09-24T04:01:51;42.20;;;38.60;;
8397;SDS011;4236;54.504;9.588;2022-09-24T04:04:19;44.00;;;40.27;;
8397;SDS011;4236;54.504;9.588;2022-09-24T04:06:47;46.00;;;42.20;;
8397;SDS011;4236;54.504;9.588;2022-09-24T04:09:14;42.97;;;39.47;;
8397;SDS011;4236;54.504;9.588;2022-09-24T04:11:43;50.43;;;46.13;;
8397;SDS011;4236;54.504;9.588;2022-09-24T04:14:11;46.63;;;42.57;;
8397;SDS011;4236;54.504;9.588;2022-09-24T04:16:38;45.57;;;41.90;;
8397;SDS011;4236;54.504;9.588;2022-09-24T04:19:06;48.80;;;44.60;;
8397;SDS011;4236;54.504;9.588;2022-09-24T04:21:34;43.77;;;40.43;;
8397;SDS011;4236;54.504;9.588;2022-09-24T04:24:01;51.33;;;46.93;;
8397;SDS011;4236;54.504;9.588;2022-09-24T04:26:29;46.80;;;43.13;;
8397;SDS011;4236;54.504;9.588;2022-09-24T04:28:58;41.93;;;38.83;;
8397;SDS011;4236;54.504;9.588;2022-09-24T04:31:25;45.03;;;41.43;;
8397;SDS011;4236;54.504;9.588;2022-09-24T04:33:53;44.77;;;41.27;;
8397;SDS011;4236;54.504;9.588;2022-09-24T04:36:21;43.20;;;39.80;;
8397;SDS011;4236;54.504;9.588;2022-09-24T04:38:48;42.90;;;39.60;;
8397;SDS011;4236;54.504;9.588;2022-09-24T04:41:16;44.43;;;40.97;;
8397;SDS011;4236;54.504;9.588;2022-09-24T04:43:44;44.10;;;40.50;;
8397;SDS011;4236;54.504;9.588;2022-09-24T04:46:13;45.47;;;41.90;;
8397;SDS011;4236;54.504;9.588;2022-09-24T04:48:41;46.27;;;42.27;;
8397;SDS011;4236;54.504;9.588;2022-09-24T04:51:08;51.67;;;47.33;;
8397;SDS011;4236;54.504;9.588;2022-09-24T04:53:36;45.57;;;42.00;;
8397;SDS011;4236;54.504;9.588;2022-09-24T04:56:04;51.60;;;47.17;;
8397;SDS011;4236;54.504;9.588;2022-09-24T04:58:37;49.87;;;45.60;;
8397;SDS011;4236;54.504;9.588;2022-09-24T05:01:05;51.67;;;46.97;;
8397;SDS011;4236;54.504;9.588;2022-09-24T05:03:33;49.50;;;45.27;;
8397;SDS011;4236;54.504;9.588;2022-09-24T05:06:01;48.83;;;45.17;;
8397;SDS011;4236;54.504;9.588;2022-09-24T05:08:29;50.40;;;46.17;;
8397;SDS011;4236;54.504;9.588;2022-09-24T05:10:56;50.77;;;46.23;;
8397;SDS011;4236;54.504;9.588;2022-09-24T05:13:24;49.60;;;45.30;;
8397;SDS011;4236;54.504;9.588;2022-09-24T05:15:52;48.63;;;44.73;;
8397;SDS011;4236;54.504;9.588;2022-09-24T05:18:20;47.20;;;43.50;;
8397;SDS011;4236;54.504;9.588;2022-09-24T05:20:49;48.57;;;44.37;;
8397;SDS011;4236;54.504;9.588;2022-09-24T05:23:17;48.27;;;44.27;;
8397;SDS011;4236;54.504;9.588;2022-09-24T05:25:45;46.80;;;43.10;;
8397;SDS011;4236;54.504;9.588;2022-09-24T05:28:30;45.90;;;42.37;;
8397;SDS011;4236;54.504;9.588;2022-09-24T05:30:58;48.33;;;44.20;;
8397;SDS011;4236;54.504;9.588;2022-09-24T05:33:27;44.80;;;41.10;;
8397;SDS011;4236;54.504;9.588;2022-09-24T05:35:56;49.67;;;45.03;;
8397;SDS011;4236;54.504;9.588;2022-09-24T05:38:24;49.90;;;45.50;;
8397;SDS011;4236;54.504;9.588;2022-09-24T05:40:52;46.23;;;42.33;;
8397;SDS011;4236;54.504;9.588;2022-09-24T05:43:20;47.90;;;44.20;;
8397;SDS011;4236;54.504;9.588;2022-09-24T05:45:47;49.83;;;45.63;;
8397;SDS011;4236;54.504;9.588;2022-09-24T05:48:15;51.93;;;47.10;;
8397;SDS011;4236;54.504;9.588;2022-09-24T05:50:43;46.67;;;42.87;;
8397;SDS011;4236;54.504;9.588;2022-09-24T05:53:12;56.97;;;52.03;;
8397;SDS011;4236;54.504;9.588;2022-09-24T05:55:41;52.67;;;47.93;;
8397;SDS011;4236;54.504;9.588;2022-09-24T05:58:09;49.03;;;44.93;;
8397;SDS011;4236;54.504;9.588;2022-09-24T06:00:37;57.83;;;52.50;;
8397;SDS011;4236;54.504;9.588;2022-09-24T06:03:05;53.47;;;48.77;;
8397;SDS011;4236;54.504;9.588;2022-09-24T06:05:36;52.60;;;47.73;;
8397;SDS011;4236;54.504;9.588;2022-09-24T06:08:04;49.17;;;44.77;;
8397;SDS011;4236;54.504;9.588;2022-09-24T06:10:35;51.20;;;47.30;;
8397;SDS011;4236;54.504;9.588;2022-09-24T06:13:03;50.20;;;46.30;;
8397;SDS011;4236;54.504;9.588;2022-09-24T06:15:31;50.03;;;45.63;;
8397;SDS011;4236;54.504;9.588;2022-09-24T06:18:00;51.77;;;47.37;;
8397;SDS011;4236;54.504;9.588;2022-09-24T06:20:27;52.33;;;47.90;;
8397;SDS011;4236;54.504;9.588;2022-09-24T06:22:55;53.33;;;48.63;;
8397;SDS011;4236;54.504;9.588;2022-09-24T06:25:23;54.97;;;49.87;;
8397;SDS011;4236;54.504;9.588;2022-09-24T06:27:55;52.00;;;47.80;;
8397;SDS011;4236;54.504;9.588;2022-09-24T06:30:26;55.20;;;50.73;;
8397;SDS011;4236;54.504;9.588;2022-09-24T06:32:59;51.77;;;47.50;;
8397;SDS011;4236;54.504;9.588;2022-09-24T06:35:28;49.63;;;45.67;;
8397;SDS011;4236;54.504;9.588;2022-09-24T06:37:55;51.57;;;47.37;;
8397;SDS011;4236;54.504;9.588;2022-09-24T06:40:23;51.13;;;46.83;;
8397;SDS011;4236;54.504;9.588;2022-09-24T06:42:51;51.37;;;46.97;;
8397;SDS011;4236;54.504;9.588;2022-09-24T06:45:21;49.20;;;45.10;;
8397;SDS011;4236;54.504;9.588;2022-09-24T06:47:52;47.57;;;43.97;;
8397;SDS011;4236;54.504;9.588;2022-09-24T06:50:20;44.10;;;40.60;;
8397;SDS011;4236;54.504;9.588;2022-09-24T06:52:48;49.83;;;45.93;;
8397;SDS011;4236;54.504;9.588;2022-09-24T06:55:16;49.27;;;45.27;;
8397;SDS011;4236;54.504;9.588;2022-09-24T06:57:44;48.50;;;44.60;;
8397;SDS011;4236;54.504;9.588;2022-09-24T07:00:12;49.67;;;45.77;;
8397;SDS011;4236;54.504;9.588;2022-09-24T07:02:42;48.57;;;44.77;;
8397;SDS011;4236;54.504;9.588;2022-09-24T07:05:10;49.07;;;45.07;;
8397;SDS011;4236;54.504;9.588;2022-09-24T07:07:37;47.50;;;43.70;;
8397;SDS011;4236;54.504;9.588;2022-09-24T07:10:06;50.93;;;47.00;;
8397;SDS011;4236;54.504;9.588;2022-09-24T07:12:35;44.63;;;41.03;;
8397;SDS011;4236;54.504;9.588;2022-09-24T07:15:03;48.77;;;44.63;;
8397;SDS011;4236;54.504;9.588;2022-09-24T07:17:31;47.07;;;43.20;;
8397;SDS011;4236;54.504;9.588;2022-09-24T07:20:00;46.80;;;43.23;;
8397;SDS011;4236;54.504;9.588;2022-09-24T07:22:29;47.53;;;43.83;;
8397;SDS011;4236;54.504;9.588;2022-09-24T07:24:56;47.53;;;43.67;;
8397;SDS011;4236;54.504;9.588;2022-09-24T07:27:24;51.53;;;47.20;;
8397;SDS011;4236;54.504;9.588;2022-09-24T07:29:52;48.80;;;44.83;;
8397;SDS011;4236;54.504;9.588;2022-09-24T07:32:20;49.07;;;45.03;;
8397;SDS011;4236;54.504;9.588;2022-09-24T07:34:54;51.97;;;48.00;;
8397;SDS011;4236;54.504;9.588;2022-09-24T07:37:23;51.63;;;47.77;;
8397;SDS011;4236;54.504;9.588;2022-09-24T07:39:51;51.23;;;47.00;;
8397;SDS011;4236;54.504;9.588;2022-09-24T07:42:18;51.47;;;47.10;;
8397;SDS011;4236;54.504;9.588;2022-09-24T07:44:46;50.80;;;46.67;;
8397;SDS011;4236;54.504;9.588;2022-09-24T07:47:14;51.77;;;47.60;;
8397;SDS011;4236;54.504;9.588;2022-09-24T07:49:42;44.13;;;40.87;;
8397;SDS011;4236;54.504;9.588;2022-09-24T07:52:09;47.90;;;43.90;;
8397;SDS011;4236;54.504;9.588;2022-09-24T07:54:38;50.07;;;46.00;;
8397;SDS011;4236;54.504;9.588;2022-09-24T07:57:08;48.87;;;44.90;;
8397;SDS011;4236;54.504;9.588;2022-09-24T07:59:38;54.17;;;49.73;;
8397;SDS011;4236;54.504;9.588;2022-09-24T08:02:08;49.63;;;45.80;;
8397;SDS011;4236;54.504;9.588;2022-09-24T08:04:41;54.53;;;50.20;;
8397;SDS011;4236;54.504;9.588;2022-09-24T08:07:09;51.17;;;47.07;;
8397;SDS011;4236;54.504;9.588;2022-09-24T08:09:39;53.57;;;48.97;;
8397;SDS011;4236;54.504;9.588;2022-09-24T08:12:07;51.63;;;47.63;;
8397;SDS011;4236;54.504;9.588;2022-09-24T08:14:37;49.20;;;45.30;;
8397;SDS011;4236;54.504;9.588;2022-09-24T08:17:05;54.13;;;49.73;;
8397;SDS011;4236;54.504;9.588;2022-09-24T08:19:32;46.83;;;43.33;;
8397;SDS011;4236;54.504;9.588;2022-09-24T08:22:00;47.80;;;43.97;;
8397;SDS011;4236;54.504;9.588;2022-09-24T08:24:30;50.77;;;46.67;;
8397;SDS011;4236;54.504;9.588;2022-09-24T08:26:59;47.00;;;43.27;;
8397;SDS011;4236;54.504;9.588;2022-09-24T08:29:26;49.97;;;45.87;;
8397;SDS011;4236;54.504;9.588;2022-09-24T08:31:54;49.07;;;45.07;;
8397;SDS011;4236;54.504;9.588;2022-09-24T08:34:22;48.97;;;44.87;;
8397;SDS011;4236;54.504;9.588;2022-09-24T08:36:50;53.57;;;48.97;;
8397;SDS011;4236;54.504;9.588;2022-09-24T08:39:17;48.63;;;44.73;;
8397;SDS011;4236;54.504;9.588;2022-09-24T08:41:52;45.43;;;41.73;;
8397;SDS011;4236;54.504;9.588;2022-09-24T08:44:25;46.00;;;42.50;;
8397;SDS011;4236;54.504;9.588;2022-09-24T08:47:15;49.00;;;45.10;;
8397;SDS011;4236;54.504;9.588;2022-09-24T08:49:54;47.33;;;43.47;;
8397;SDS011;4236;54.504;9.588;2022-09-24T08:52:34;46.20;;;42.13;;
8397;SDS011;4236;54.504;9.588;2022-09-24T08:55:09;48.20;;;44.20;;
8397;SDS011;4236;54.504;9.588;2022-09-24T08:57:48;47.17;;;43.00;;
8397;SDS011;4236;54.504;9.588;2022-09-24T09:00:25;42.30;;;38.80;;
8397;SDS011;4236;54.504;9.588;2022-09-24T09:02:57;41.83;;;38.27;;
8397;SDS011;4236;54.504;9.588;2022-09-24T09:05:41;41.87;;;38.40;;
8397;SDS011;4236;54.504;9.588;2022-09-24T09:08:17;41.17;;;37.60;;
8397;SDS011;4236;54.504;9.588;2022-09-24T09:11:15;42.83;;;38.93;;
8397;SDS011;4236;54.504;9.588;2022-09-24T09:13:47;44.33;;;40.13;;
8397;SDS011;4236;54.504;9.588;2022-09-24T09:16:22;45.37;;;40.90;;
8397;SDS011;4236;54.504;9.588;2022-09-24T09:18:54;39.20;;;35.63;;
8397;SDS011;4236;54.504;9.588;2022-09-24T09:21:26;45.40;;;41.27;;
8397;SDS011;4236;54.504;9.588;2022-09-24T09:23:57;42.17;;;38.50;;
8397;SDS011;4236;54.504;9.588;2022-09-24T09:26:27;40.80;;;36.93;;
8397;SDS011;4236;54.504;9.588;2022-09-24T09:28:57;42.43;;;38.27;;
8397;SDS011;4236;54.504;9.588;2022-09-24T09:31:30;41.70;;;37.43;;
8397;SDS011;4236;54.504;9.588;2022-09-24T09:34:13;39.30;;;35.23;;
8397;SDS011;4236;54.504;9.588;2022-09-24T09:36:58;43.10;;;39.20;;
8397;SDS011;4236;54.504;9.588;2022-09-24T09:39:36;45.63;;;40.97;;
8397;SDS011;4236;54.504;9.588;2022-09-24T09:42:27;42.37;;;37.87;;
8397;SDS011;4236;54.504;9.588;2022-09-24T09:44:58;42.23;;;38.10;;
8397;SDS011;4236;54.504;9.588;2022-09-24T09:47:35;36.97;;;33.30;;
8397;SDS011;4236;54.504;9.588;2022-09-24T09:50:10;39.13;;;35.10;;
8397;SDS011;4236;54.504;9.588;2022-09-24T09:52:45;37.00;;;33.07;;
8397;SDS011;4236;54.504;9.588;2022-09-24T09:55:21;38.90;;;35.10;;
8397;SDS011;4236;54.504;9.588;2022-09-24T09:57:50;38.40;;;34.50;;
8397;SDS011;4236;54.504;9.588;2022-09-24T10:00:25;39.13;;;35.10;;
8397;SDS011;4236;54.504;9.588;2022-09-24T10:02:55;39.03;;;35.20;;
8397;SDS011;4236;54.504;9.588;2022-09-24T10:05:23;35.97;;;32.20;;
8397;SDS011;4236;54.504;9.588;2022-09-24T10:07:54;38.10;;;34.43;;
8397;SDS011;4236;54.504;9.588;2022-09-24T10:10:23;35.07;;;31.63;;
8397;SDS011;4236;54.504;9.588;2022-09-24T10:12:52;37.07;;;33.40;;
8397;SDS011;4236;54.504;9.588;2022-09-24T10:15:21;33.90;;;30.60;;
8397;SDS011;4236;54.504;9.588;2022-09-24T10:17:51;33.40;;;29.90;;
8397;SDS011;4236;54.504;9.588;2022-09-24T10:20:22;32.97;;;29.70;;
8397;SDS011;4236;54.504;9.588;2022-09-24T10:22:53;33.40;;;30.20;;
8397;SDS011;4236;54.504;9.588;2022-09-24T10:25:24;36.33;;;32.77;;
8397;SDS011;4236;54.504;9.588;2022-09-24T10:27:54;32.47;;;29.20;;
8397;SDS011;4236;54.504;9.588;2022-09-24T10:30:47;33.97;;;30.47;;
8397;SDS011;4236;54.504;9.588;2022-09-24T10:33:16;36.53;;;32.13;;
8397;SDS011;4236;54.504;9.588;2022-09-24T10:35:46;31.70;;;28.70;;
8397;SDS011;4236;54.504;9.588;2022-09-24T10:38:14;29.03;;;26.23;;
8397;SDS011;4236;54.504;9.588;2022-09-24T10:40:44;33.80;;;26.97;;
8397;SDS011;4236;54.504;9.588;2022-09-24T10:43:15;27.43;;;24.50;;
8397;SDS011;4236;54.504;9.588;2022-09-24T10:45:55;24.73;;;21.80;;
8397;SDS011;4236;54.504;9.588;2022-09-24T10:48:34;22.93;;;20.67;;
8397;SDS011;4236;54.504;9.588;2022-09-24T10:51:14;21.83;;;19.60;;
8397;SDS011;4236;54.504;9.588;2022-09-24T10:53:57;22.27;;;20.03;;
8397;SDS011;4236;54.504;9.588;2022-09-24T10:56:36;22.87;;;20.77;;
8397;SDS011;4236;54.504;9.588;2022-09-24T10:59:15;27.10;;;24.40;;
8397;SDS011;4236;54.504;9.588;2022-09-24T11:01:57;24.43;;;22.00;;
8397;SDS011;4236;54.504;9.588;2022-09-24T11:04:46;22.80;;;20.60;;
8397;SDS011;4236;54.504;9.588;2022-09-24T11:07:21;25.67;;;22.63;;
8397;SDS011;4236;54.504;9.588;2022-09-24T11:10:12;24.50;;;21.90;;
8397;SDS011;4236;54.504;9.588;2022-09-24T11:12:58;25.77;;;23.27;;
8397;SDS011;4236;54.504;9.588;2022-09-24T11:18:53;26.23;;;23.67;;
8397;SDS011;4236;54.504;9.588;2022-09-24T11:21:36;24.60;;;22.10;;
8397;SDS011;4236;54.504;9.588;2022-09-24T11:24:26;25.67;;;22.10;;
8397;SDS011;4236;54.504;9.588;2022-09-24T11:27:20;24.00;;;21.47;;
8397;SDS011;4236;54.504;9.588;2022-09-24T11:30:06;27.60;;;22.90;;
8397;SDS011;4236;54.504;9.588;2022-09-24T11:32:39;23.73;;;21.60;;
8397;SDS011;4236;54.504;9.588;2022-09-24T11:35:23;24.03;;;21.97;;
8397;SDS011;4236;54.504;9.588;2022-09-24T11:38:02;24.57;;;22.07;;
8397;SDS011;4236;54.504;9.588;2022-09-24T11:40:56;21.87;;;19.73;;
8397;SDS011;4236;54.504;9.588;2022-09-24T11:43:47;23.60;;;21.20;;
8397;SDS011;4236;54.504;9.588;2022-09-24T11:46:36;22.60;;;20.37;;
8397;SDS011;4236;54.504;9.588;2022-09-24T11:49:22;23.07;;;21.03;;
8397;SDS011;4236;54.504;9.588;2022-09-24T11:52:02;20.53;;;18.67;;
8397;SDS011;4236;54.504;9.588;2022-09-24T11:54:36;25.17;;;22.53;;
8397;SDS011;4236;54.504;9.588;2022-09-24T11:57:13;18.73;;;17.07;;
8397;SDS011;4236;54.504;9.588;2022-09-24T11:59:47;25.10;;;22.50;;
8397;SDS011;4236;54.504;9.588;2022-09-24T12:02:21;23.87;;;21.17;;
8397;SDS011;4236;54.504;9.588;2022-09-24T12:04:54;23.90;;;21.50;;
8397;SDS011;4236;54.504;9.588;2022-09-24T12:07:28;26.63;;;24.10;;
8397;SDS011;4236;54.504;9.588;2022-09-24T12:10:01;23.10;;;20.73;;
8397;SDS011;4236;54.504;9.588;2022-09-24T12:12:36;26.77;;;24.13;;
8397;SDS011;4236;54.504;9.588;2022-09-24T12:15:11;27.80;;;24.83;;
8397;SDS011;4236;54.504;9.588;2022-09-24T12:17:45;25.63;;;23.10;;
8397;SDS011;4236;54.504;9.588;2022-09-24T12:20:19;23.27;;;21.10;;
8397;SDS011;4236;54.504;9.588;2022-09-24T12:22:52;27.17;;;24.37;;
8397;SDS011;4236;54.504;9.588;2022-09-24T12:25:25;23.50;;;21.30;;
8397;SDS011;4236;54.504;9.588;2022-09-24T12:28:00;20.93;;;19.03;;
8397;SDS011;4236;54.504;9.588;2022-09-24T12:30:30;22.50;;;20.17;;
8397;SDS011;4236;54.504;9.588;2022-09-24T12:33:24;22.33;;;20.03;;
8397;SDS011;4236;54.504;9.588;2022-09-24T12:35:58;21.80;;;19.57;;
8397;SDS011;4236;54.504;9.588;2022-09-24T12:38:32;21.57;;;19.40;;
8397;SDS011;4236;54.504;9.588;2022-09-24T12:43:57;21.77;;;19.60;;
8397;SDS011;4236;54.504;9.588;2022-09-24T12:46:30;21.73;;;19.47;;
8397;SDS011;4236;54.504;9.588;2022-09-24T12:49:01;23.57;;;21.27;;
8397;SDS011;4236;54.504;9.588;2022-09-24T12:51:33;23.27;;;21.10;;
8397;SDS011;4236;54.504;9.588;2022-09-24T12:54:06;21.60;;;19.50;;
8397;SDS011;4236;54.504;9.588;2022-09-24T12:56:41;23.83;;;21.60;;
8397;SDS011;4236;54.504;9.588;2022-09-24T12:59:23;21.17;;;19.07;;
8397;SDS011;4236;54.504;9.588;2022-09-24T13:01:52;23.20;;;20.23;;
8397;SDS011;4236;54.504;9.588;2022-09-24T13:04:26;23.60;;;21.20;;
8397;SDS011;4236;54.504;9.588;2022-09-24T13:06:55;23.20;;;20.53;;
8397;SDS011;4236;54.504;9.588;2022-09-24T13:09:33;32.13;;;28.67;;
8397;SDS011;4236;54.504;9.588;2022-09-24T13:12:04;26.50;;;23.97;;
8397;SDS011;4236;54.504;9.588;2022-09-24T13:14:53;22.87;;;20.20;;
8397;SDS011;4236;54.504;9.588;2022-09-24T13:17:26;21.27;;;19.17;;
8397;SDS011;4236;54.504;9.588;2022-09-24T13:19:55;24.47;;;22.17;;
8397;SDS011;4236;54.504;9.588;2022-09-24T13:22:26;21.20;;;19.13;;
8397;SDS011;4236;54.504;9.588;2022-09-24T13:25:16;20.73;;;18.53;;
8397;SDS011;4236;54.504;9.588;2022-09-24T13:27:57;21.93;;;19.93;;
8397;SDS011;4236;54.504;9.588;2022-09-24T13:30:33;27.60;;;20.27;;
8397;SDS011;4236;54.504;9.588;2022-09-24T13:33:09;23.07;;;20.67;;
8397;SDS011;4236;54.504;9.588;2022-09-24T13:35:46;23.10;;;21.07;;
8397;SDS011;4236;54.504;9.588;2022-09-24T13:38:27;20.97;;;18.97;;
8397;SDS011;4236;54.504;9.588;2022-09-24T13:41:00;21.63;;;19.53;;
8397;SDS011;4236;54.504;9.588;2022-09-24T13:43:37;23.30;;;21.00;;
8397;SDS011;4236;54.504;9.588;2022-09-24T13:46:12;21.23;;;19.03;;
8397;SDS011;4236;54.504;9.588;2022-09-24T13:48:44;22.17;;;19.87;;
8397;SDS011;4236;54.504;9.588;2022-09-24T13:51:16;23.30;;;21.00;;
8397;SDS011;4236;54.504;9.588;2022-09-24T13:53:49;21.27;;;19.33;;
8397;SDS011;4236;54.504;9.588;2022-09-24T13:56:21;19.50;;;17.57;;
8397;SDS011;4236;54.504;9.588;2022-09-24T13:58:49;24.63;;;22.27;;
8397;SDS011;4236;54.504;9.588;2022-09-24T14:01:19;30.73;;;27.50;;
8397;SDS011;4236;54.504;9.588;2022-09-24T14:03:50;30.50;;;27.40;;
8397;SDS011;4236;54.504;9.588;2022-09-24T14:06:21;30.30;;;27.20;;
8397;SDS011;4236;54.504;9.588;2022-09-24T14:08:58;33.57;;;30.30;;
8397;SDS011;4236;54.504;9.588;2022-09-24T14:11:27;36.80;;;33.03;;
8397;SDS011;4236;54.504;9.588;2022-09-24T14:13:55;38.27;;;34.47;;
8397;SDS011;4236;54.504;9.588;2022-09-24T14:16:25;39.87;;;35.87;;
8397;SDS011;4236;54.504;9.588;2022-09-24T14:18:59;40.17;;;35.97;;
8397;SDS011;4236;54.504;9.588;2022-09-24T14:21:29;42.73;;;38.13;;
8397;SDS011;4236;54.504;9.588;2022-09-24T14:24:02;47.37;;;40.07;;
8397;SDS011;4236;54.504;9.588;2022-09-24T14:26:33;44.90;;;39.63;;
8397;SDS011;4236;54.504;9.588;2022-09-24T14:29:03;47.07;;;42.07;;
8397;SDS011;4236;54.504;9.588;2022-09-24T14:31:42;52.20;;;42.00;;
8397;SDS011;4236;54.504;9.588;2022-09-24T14:34:15;44.70;;;38.73;;
8397;SDS011;4236;54.504;9.588;2022-09-24T14:36:51;46.53;;;41.40;;
8397;SDS011;4236;54.504;9.588;2022-09-24T14:39:19;47.57;;;42.70;;
8397;SDS011;4236;54.504;9.588;2022-09-24T14:41:49;47.40;;;42.30;;
8397;SDS011;4236;54.504;9.588;2022-09-24T14:44:19;47.47;;;42.10;;
8397;SDS011;4236;54.504;9.588;2022-09-24T14:46:51;49.80;;;42.40;;
8397;SDS011;4236;54.504;9.588;2022-09-24T14:49:22;43.90;;;38.63;;
8397;SDS011;4236;54.504;9.588;2022-09-24T14:51:51;42.10;;;37.87;;
8397;SDS011;4236;54.504;9.588;2022-09-24T14:54:22;46.03;;;41.20;;
8397;SDS011;4236;54.504;9.588;2022-09-24T14:56:54;48.27;;;43.00;;
8397;SDS011;4236;54.504;9.588;2022-09-24T14:59:27;49.00;;;41.83;;
8397;SDS011;4236;54.504;9.588;2022-09-24T15:02:04;52.83;;;46.90;;
8397;SDS011;4236;54.504;9.588;2022-09-24T15:04:43;47.33;;;42.30;;
8397;SDS011;4236;54.504;9.588;2022-09-24T15:07:14;48.47;;;43.27;;
8397;SDS011;4236;54.504;9.588;2022-09-24T15:09:46;50.47;;;45.27;;
8397;SDS011;4236;54.504;9.588;2022-09-24T15:12:16;53.37;;;47.60;;
8397;SDS011;4236;54.504;9.588;2022-09-24T15:14:53;53.87;;;48.17;;
8397;SDS011;4236;54.504;9.588;2022-09-24T15:17:27;52.07;;;47.10;;
8397;SDS011;4236;54.504;9.588;2022-09-24T15:19:56;55.37;;;49.60;;
8397;SDS011;4236;54.504;9.588;2022-09-24T15:22:24;57.40;;;51.43;;
8397;SDS011;4236;54.504;9.588;2022-09-24T15:24:53;58.43;;;52.03;;
8397;SDS011;4236;54.504;9.588;2022-09-24T15:27:27;58.37;;;52.37;;